sensor_id;sensor_type;location;lat;lon;timestamp;P1;durP1;ratioP1;P2;durP2;ratioP2
71296;SDS011;59082;50.658;4.608;2022-12-07T00:01:04;30.27;;;16.40;;
71296;SDS011;59082;50.658;4.608;2022-12-07T00:03:33;31.58;;;17.25;;
71296;SDS011;59082;50.658;4.608;2022-12-07T00:05:59;34.60;;;17.50;;
71296;SDS011;59082;50.658;4.608;2022-12-07T00:08:25;31.02;;;16.83;;
71296;SDS011;59082;50.658;4.608;2022-12-07T00:10:50;29.10;;;17.90;;
71296;SDS011;59082;50.658;4.608;2022-12-07T00:13:16;32.47;;;16.60;;
71296;SDS011;59082;50.658;4.608;2022-12-07T00:15:42;33.43;;;18.60;;
71296;SDS011;59082;50.658;4.608;2022-12-07T00:18:07;33.87;;;17.70;;
71296;SDS011;59082;50.658;4.608;2022-12-07T00:20:33;29.40;;;16.77;;
71296;SDS011;59082;50.658;4.608;2022-12-07T00:22:58;32.45;;;16.52;;
71296;SDS011;59082;50.658;4.608;2022-12-07T00:25:24;23.60;;;14.07;;
71296;SDS011;59082;50.658;4.608;2022-12-07T00:27:51;23.07;;;14.73;;
71296;SDS011;59082;50.658;4.608;2022-12-07T00:30:18;23.15;;;14.55;;
71296;SDS011;59082;50.658;4.608;2022-12-07T00:32:44;27.87;;;15.83;;
71296;SDS011;59082;50.658;4.608;2022-12-07T00:35:09;26.73;;;14.45;;
71296;SDS011;59082;50.658;4.608;2022-12-07T00:37:35;29.80;;;16.37;;
71296;SDS011;59082;50.658;4.608;2022-12-07T00:40:00;26.13;;;15.37;;
71296;SDS011;59082;50.658;4.608;2022-12-07T00:42:26;27.52;;;16.60;;
71296;SDS011;59082;50.658;4.608;2022-12-07T00:44:51;32.77;;;18.63;;
71296;SDS011;59082;50.658;4.608;2022-12-07T00:47:17;29.03;;;17.03;;
71296;SDS011;59082;50.658;4.608;2022-12-07T00:49:42;29.13;;;17.80;;
71296;SDS011;59082;50.658;4.608;2022-12-07T00:52:09;31.50;;;17.73;;
71296;SDS011;59082;50.658;4.608;2022-12-07T00:54:34;30.92;;;16.52;;
71296;SDS011;59082;50.658;4.608;2022-12-07T00:57:00;25.17;;;16.40;;
71296;SDS011;59082;50.658;4.608;2022-12-07T00:59:26;35.17;;;16.70;;
71296;SDS011;59082;50.658;4.608;2022-12-07T01:01:51;26.65;;;17.45;;
71296;SDS011;59082;50.658;4.608;2022-12-07T01:04:17;26.80;;;15.73;;
71296;SDS011;59082;50.658;4.608;2022-12-07T01:06:42;29.20;;;16.03;;
71296;SDS011;59082;50.658;4.608;2022-12-07T01:09:08;25.15;;;15.52;;
71296;SDS011;59082;50.658;4.608;2022-12-07T01:11:33;29.20;;;15.87;;
71296;SDS011;59082;50.658;4.608;2022-12-07T01:13:59;29.00;;;16.77;;
71296;SDS011;59082;50.658;4.608;2022-12-07T01:16:26;28.35;;;16.85;;
71296;SDS011;59082;50.658;4.608;2022-12-07T01:18:55;27.85;;;17.15;;
71296;SDS011;59082;50.658;4.608;2022-12-07T01:21:22;28.33;;;16.70;;
71296;SDS011;59082;50.658;4.608;2022-12-07T01:23:50;25.20;;;15.47;;
71296;SDS011;59082;50.658;4.608;2022-12-07T01:26:22;25.23;;;16.65;;
71296;SDS011;59082;50.658;4.608;2022-12-07T01:28:49;28.67;;;15.80;;
71296;SDS011;59082;50.658;4.608;2022-12-07T01:31:19;31.13;;;17.58;;
71296;SDS011;59082;50.658;4.608;2022-12-07T07:43:31;20.13;;;14.50;;
71296;SDS011;59082;50.658;4.608;2022-12-07T07:45:57;20.10;;;12.63;;
71296;SDS011;59082;50.658;4.608;2022-12-07T07:48:22;20.47;;;13.70;;
71296;SDS011;59082;50.658;4.608;2022-12-07T07:50:50;19.05;;;13.15;;
71296;SDS011;59082;50.658;4.608;2022-12-07T07:53:16;19.38;;;14.35;;
71296;SDS011;59082;50.658;4.608;2022-12-07T07:55:41;18.60;;;12.73;;
71296;SDS011;59082;50.658;4.608;2022-12-07T07:58:15;19.77;;;13.70;;
71296;SDS011;59082;50.658;4.608;2022-12-07T08:00:41;27.00;;;13.90;;
71296;SDS011;59082;50.658;4.608;2022-12-07T08:03:06;22.63;;;13.53;;
71296;SDS011;59082;50.658;4.608;2022-12-07T08:05:32;21.48;;;13.18;;
71296;SDS011;59082;50.658;4.608;2022-12-07T08:07:57;19.03;;;13.40;;
71296;SDS011;59082;50.658;4.608;2022-12-07T08:10:24;19.70;;;13.13;;
71296;SDS011;59082;50.658;4.608;2022-12-07T08:12:49;20.90;;;13.55;;
71296;SDS011;59082;50.658;4.608;2022-12-07T08:15:36;20.52;;;14.75;;
71296;SDS011;59082;50.658;4.608;2022-12-07T08:18:03;20.75;;;13.48;;
71296;SDS011;59082;50.658;4.608;2022-12-07T08:20:30;22.40;;;14.20;;
71296;SDS011;59082;50.658;4.608;2022-12-07T08:22:56;25.85;;;15.30;;
71296;SDS011;59082;50.658;4.608;2022-12-07T08:25:22;22.55;;;14.77;;
71296;SDS011;59082;50.658;4.608;2022-12-07T08:27:48;21.73;;;14.53;;
71296;SDS011;59082;50.658;4.608;2022-12-07T08:30:14;23.08;;;13.98;;
71296;SDS011;59082;50.658;4.608;2022-12-07T08:32:40;22.73;;;13.23;;
71296;SDS011;59082;50.658;4.608;2022-12-07T08:35:06;24.38;;;14.73;;
71296;SDS011;59082;50.658;4.608;2022-12-07T08:37:32;21.77;;;13.93;;
71296;SDS011;59082;50.658;4.608;2022-12-07T08:39:58;25.37;;;16.30;;
71296;SDS011;59082;50.658;4.608;2022-12-07T08:42:24;23.42;;;15.25;;
71296;SDS011;59082;50.658;4.608;2022-12-07T08:44:54;23.65;;;14.80;;
71296;SDS011;59082;50.658;4.608;2022-12-07T08:47:21;21.52;;;13.52;;
71296;SDS011;59082;50.658;4.608;2022-12-07T08:49:47;22.80;;;13.10;;
71296;SDS011;59082;50.658;4.608;2022-12-07T08:52:14;21.90;;;14.07;;
71296;SDS011;59082;50.658;4.608;2022-12-07T08:54:40;26.33;;;15.10;;
71296;SDS011;59082;50.658;4.608;2022-12-07T08:57:06;25.55;;;15.85;;
71296;SDS011;59082;50.658;4.608;2022-12-07T08:59:33;21.13;;;12.53;;
71296;SDS011;59082;50.658;4.608;2022-12-07T09:02:01;21.05;;;13.57;;
71296;SDS011;59082;50.658;4.608;2022-12-07T09:04:26;23.20;;;14.40;;
71296;SDS011;59082;50.658;4.608;2022-12-07T09:06:52;27.23;;;16.20;;
71296;SDS011;59082;50.658;4.608;2022-12-07T09:09:19;24.92;;;16.52;;
71296;SDS011;59082;50.658;4.608;2022-12-07T09:11:44;34.43;;;21.93;;
71296;SDS011;59082;50.658;4.608;2022-12-07T09:14:10;37.87;;;23.73;;
71296;SDS011;59082;50.658;4.608;2022-12-07T09:16:37;51.17;;;25.83;;
71296;SDS011;59082;50.658;4.608;2022-12-07T09:19:03;49.63;;;22.67;;
71296;SDS011;59082;50.658;4.608;2022-12-07T09:21:28;52.70;;;28.37;;
71296;SDS011;59082;50.658;4.608;2022-12-07T09:23:54;62.17;;;33.33;;
71296;SDS011;59082;50.658;4.608;2022-12-07T09:26:20;52.43;;;30.57;;
71296;SDS011;59082;50.658;4.608;2022-12-07T09:28:46;71.53;;;41.13;;
71296;SDS011;59082;50.658;4.608;2022-12-07T09:31:12;62.58;;;40.15;;
71296;SDS011;59082;50.658;4.608;2022-12-07T09:33:37;36.67;;;25.60;;
71296;SDS011;59082;50.658;4.608;2022-12-07T09:36:03;34.95;;;24.05;;
71296;SDS011;59082;50.658;4.608;2022-12-07T09:38:30;29.45;;;18.05;;
71296;SDS011;59082;50.658;4.608;2022-12-07T09:40:57;26.38;;;17.55;;
71296;SDS011;59082;50.658;4.608;2022-12-07T09:43:28;21.33;;;14.43;;
71296;SDS011;59082;50.658;4.608;2022-12-07T09:45:54;23.85;;;15.07;;
71296;SDS011;59082;50.658;4.608;2022-12-07T09:48:22;18.20;;;13.20;;
71296;SDS011;59082;50.658;4.608;2022-12-07T09:50:54;22.63;;;16.70;;
71296;SDS011;59082;50.658;4.608;2022-12-07T09:53:25;23.75;;;18.00;;
71296;SDS011;59082;50.658;4.608;2022-12-07T09:55:53;15.50;;;11.50;;
71296;SDS011;59082;50.658;4.608;2022-12-07T09:58:21;14.60;;;11.00;;
71296;SDS011;59082;50.658;4.608;2022-12-07T10:01:12;18.35;;;11.82;;
71296;SDS011;59082;50.658;4.608;2022-12-07T10:03:36;15.40;;;10.30;;
71296;SDS011;59082;50.658;4.608;2022-12-07T10:06:04;15.88;;;9.85;;
71296;SDS011;59082;50.658;4.608;2022-12-07T10:08:31;13.20;;;9.15;;
71296;SDS011;59082;50.658;4.608;2022-12-07T10:10:57;13.48;;;9.68;;
71296;SDS011;59082;50.658;4.608;2022-12-07T10:19:23;13.05;;;9.38;;
71296;SDS011;59082;50.658;4.608;2022-12-07T10:22:11;13.15;;;8.77;;
71296;SDS011;59082;50.658;4.608;2022-12-07T10:24:39;11.45;;;8.52;;
71296;SDS011;59082;50.658;4.608;2022-12-07T10:30:07;11.50;;;7.60;;
71296;SDS011;59082;50.658;4.608;2022-12-07T10:32:38;14.57;;;8.65;;
71296;SDS011;59082;50.658;4.608;2022-12-07T10:35:21;19.77;;;11.45;;
71296;SDS011;59082;50.658;4.608;2022-12-07T10:37:51;30.23;;;13.70;;
71296;SDS011;59082;50.658;4.608;2022-12-07T10:43:01;31.75;;;13.05;;
71296;SDS011;59082;50.658;4.608;2022-12-07T10:55:26;15.23;;;7.25;;
71296;SDS011;59082;50.658;4.608;2022-12-07T11:09:30;21.92;;;9.30;;
71296;SDS011;59082;50.658;4.608;2022-12-07T11:25:53;8.90;;;5.43;;
71296;SDS011;59082;50.658;4.608;2022-12-07T11:31:22;9.07;;;4.72;;
71296;SDS011;59082;50.658;4.608;2022-12-07T11:34:05;8.30;;;4.97;;
71296;SDS011;59082;50.658;4.608;2022-12-07T11:36:43;8.07;;;5.55;;
71296;SDS011;59082;50.658;4.608;2022-12-07T11:39:22;11.45;;;5.57;;
71296;SDS011;59082;50.658;4.608;2022-12-07T11:42:06;8.27;;;5.10;;
71296;SDS011;59082;50.658;4.608;2022-12-07T11:44:53;17.95;;;9.75;;
71296;SDS011;59082;50.658;4.608;2022-12-07T11:50:30;11.13;;;6.70;;
71296;SDS011;59082;50.658;4.608;2022-12-07T11:55:46;9.60;;;7.90;;
71296;SDS011;59082;50.658;4.608;2022-12-07T11:58:21;7.68;;;4.82;;
71296;SDS011;59082;50.658;4.608;2022-12-07T12:03:56;10.60;;;4.53;;
71296;SDS011;59082;50.658;4.608;2022-12-07T12:06:27;5.93;;;4.03;;
71296;SDS011;59082;50.658;4.608;2022-12-07T12:09:00;6.25;;;3.60;;
71296;SDS011;59082;50.658;4.608;2022-12-07T12:22:45;6.88;;;4.28;;
71296;SDS011;59082;50.658;4.608;2022-12-07T12:27:49;7.18;;;5.10;;
71296;SDS011;59082;50.658;4.608;2022-12-07T12:30:25;14.10;;;7.03;;
71296;SDS011;59082;50.658;4.608;2022-12-07T12:33:45;10.45;;;5.00;;
71296;SDS011;59082;50.658;4.608;2022-12-07T12:47:00;6.38;;;4.25;;
71296;SDS011;59082;50.658;4.608;2022-12-07T12:49:54;9.77;;;4.72;;
71296;SDS011;59082;50.658;4.608;2022-12-07T12:57:34;9.13;;;4.80;;
71296;SDS011;59082;50.658;4.608;2022-12-07T13:00:02;7.43;;;4.18;;
71296;SDS011;59082;50.658;4.608;2022-12-07T13:02:38;10.43;;;4.97;;
71296;SDS011;59082;50.658;4.608;2022-12-07T13:12:56;19.33;;;10.20;;
71296;SDS011;59082;50.658;4.608;2022-12-07T13:15:47;11.57;;;6.87;;
71296;SDS011;59082;50.658;4.608;2022-12-07T13:23:34;16.75;;;8.98;;
71296;SDS011;59082;50.658;4.608;2022-12-07T13:31:47;8.95;;;5.53;;
71296;SDS011;59082;50.658;4.608;2022-12-07T13:39:54;7.55;;;3.88;;
71296;SDS011;59082;50.658;4.608;2022-12-07T13:42:37;5.87;;;3.80;;
71296;SDS011;59082;50.658;4.608;2022-12-07T13:47:48;5.70;;;3.17;;
71296;SDS011;59082;50.658;4.608;2022-12-07T13:50:23;10.30;;;4.40;;
71296;SDS011;59082;50.658;4.608;2022-12-07T13:52:54;8.60;;;4.30;;
71296;SDS011;59082;50.658;4.608;2022-12-07T13:55:21;5.90;;;3.55;;
71296;SDS011;59082;50.658;4.608;2022-12-07T13:57:49;5.25;;;3.80;;
71296;SDS011;59082;50.658;4.608;2022-12-07T14:00:18;7.60;;;4.03;;
71296;SDS011;59082;50.658;4.608;2022-12-07T14:02:56;6.87;;;3.70;;
71296;SDS011;59082;50.658;4.608;2022-12-07T14:05:33;5.53;;;2.67;;
71296;SDS011;59082;50.658;4.608;2022-12-07T14:10:29;5.70;;;3.00;;
71296;SDS011;59082;50.658;4.608;2022-12-07T14:12:57;7.00;;;3.67;;
71296;SDS011;59082;50.658;4.608;2022-12-07T14:15:25;7.20;;;3.80;;
71296;SDS011;59082;50.658;4.608;2022-12-07T14:17:54;7.22;;;3.25;;
71296;SDS011;59082;50.658;4.608;2022-12-07T14:22:58;5.57;;;2.92;;
71296;SDS011;59082;50.658;4.608;2022-12-07T14:25:27;6.68;;;4.00;;
71296;SDS011;59082;50.658;4.608;2022-12-07T14:27:54;3.17;;;2.87;;
71296;SDS011;59082;50.658;4.608;2022-12-07T14:30:25;6.43;;;3.97;;
71296;SDS011;59082;50.658;4.608;2022-12-07T14:32:58;4.70;;;3.70;;
71296;SDS011;59082;50.658;4.608;2022-12-07T14:35:25;5.15;;;2.78;;
71296;SDS011;59082;50.658;4.608;2022-12-07T14:37:52;20.10;;;7.88;;
71296;SDS011;59082;50.658;4.608;2022-12-07T14:40:21;14.60;;;5.27;;
71296;SDS011;59082;50.658;4.608;2022-12-07T14:42:50;9.50;;;4.20;;
71296;SDS011;59082;50.658;4.608;2022-12-07T14:45:19;11.10;;;4.22;;
71296;SDS011;59082;50.658;4.608;2022-12-07T14:47:46;7.65;;;3.42;;
71296;SDS011;59082;50.658;4.608;2022-12-07T14:50:17;15.90;;;6.63;;
71296;SDS011;59082;50.658;4.608;2022-12-07T14:52:52;3.67;;;2.70;;
71296;SDS011;59082;50.658;4.608;2022-12-07T14:55:25;5.20;;;3.35;;
71296;SDS011;59082;50.658;4.608;2022-12-07T14:57:53;8.13;;;3.85;;
71296;SDS011;59082;50.658;4.608;2022-12-07T15:00:19;8.73;;;4.65;;
71296;SDS011;59082;50.658;4.608;2022-12-07T15:02:46;7.40;;;4.40;;
71296;SDS011;59082;50.658;4.608;2022-12-07T15:05:13;6.13;;;3.35;;
71296;SDS011;59082;50.658;4.608;2022-12-07T15:07:39;8.88;;;4.15;;
71296;SDS011;59082;50.658;4.608;2022-12-07T15:10:05;5.10;;;3.27;;
71296;SDS011;59082;50.658;4.608;2022-12-07T15:12:31;7.20;;;3.47;;
71296;SDS011;59082;50.658;4.608;2022-12-07T15:14:57;5.33;;;3.30;;
71296;SDS011;59082;50.658;4.608;2022-12-07T15:17:22;4.50;;;3.43;;
71296;SDS011;59082;50.658;4.608;2022-12-07T15:19:48;4.93;;;2.97;;
71296;SDS011;59082;50.658;4.608;2022-12-07T15:22:14;4.37;;;3.30;;
71296;SDS011;59082;50.658;4.608;2022-12-07T15:24:39;5.40;;;3.97;;
71296;SDS011;59082;50.658;4.608;2022-12-07T15:27:06;7.10;;;4.07;;
71296;SDS011;59082;50.658;4.608;2022-12-07T15:29:31;7.60;;;3.88;;
71296;SDS011;59082;50.658;4.608;2022-12-07T15:31:57;6.72;;;3.90;;
71296;SDS011;59082;50.658;4.608;2022-12-07T15:34:23;5.47;;;3.57;;
71296;SDS011;59082;50.658;4.608;2022-12-07T15:36:50;3.72;;;2.92;;
71296;SDS011;59082;50.658;4.608;2022-12-07T15:39:15;3.17;;;1.77;;
71296;SDS011;59082;50.658;4.608;2022-12-07T15:41:42;2.15;;;1.95;;
71296;SDS011;59082;50.658;4.608;2022-12-07T15:44:09;4.72;;;2.38;;
71296;SDS011;59082;50.658;4.608;2022-12-07T15:46:55;3.67;;;2.30;;
71296;SDS011;59082;50.658;4.608;2022-12-07T15:49:21;4.90;;;2.50;;
71296;SDS011;59082;50.658;4.608;2022-12-07T15:51:46;3.43;;;2.73;;
71296;SDS011;59082;50.658;4.608;2022-12-07T15:54:19;4.32;;;2.30;;
71296;SDS011;59082;50.658;4.608;2022-12-07T15:56:47;3.60;;;2.60;;
71296;SDS011;59082;50.658;4.608;2022-12-07T15:59:12;6.00;;;3.38;;
71296;SDS011;59082;50.658;4.608;2022-12-07T16:01:38;5.30;;;3.15;;
71296;SDS011;59082;50.658;4.608;2022-12-07T16:04:04;8.40;;;4.67;;
71296;SDS011;59082;50.658;4.608;2022-12-07T16:06:29;4.37;;;3.10;;
71296;SDS011;59082;50.658;4.608;2022-12-07T16:08:55;6.87;;;3.50;;
71296;SDS011;59082;50.658;4.608;2022-12-07T16:11:20;5.83;;;2.90;;
71296;SDS011;59082;50.658;4.608;2022-12-07T16:13:46;6.23;;;4.40;;
71296;SDS011;59082;50.658;4.608;2022-12-07T16:16:13;8.52;;;5.07;;
71296;SDS011;59082;50.658;4.608;2022-12-07T16:18:41;9.20;;;6.50;;
71296;SDS011;59082;50.658;4.608;2022-12-07T16:21:08;8.27;;;5.20;;
71296;SDS011;59082;50.658;4.608;2022-12-07T16:23:33;7.85;;;4.68;;
71296;SDS011;59082;50.658;4.608;2022-12-07T16:26:12;6.63;;;5.03;;
71296;SDS011;59082;50.658;4.608;2022-12-07T16:28:40;10.27;;;5.43;;
71296;SDS011;59082;50.658;4.608;2022-12-07T16:31:08;7.82;;;5.30;;
71296;SDS011;59082;50.658;4.608;2022-12-07T16:33:37;6.80;;;4.80;;
71296;SDS011;59082;50.658;4.608;2022-12-07T16:36:03;6.93;;;4.65;;
71296;SDS011;59082;50.658;4.608;2022-12-07T16:38:31;5.78;;;4.57;;
71296;SDS011;59082;50.658;4.608;2022-12-07T16:40:57;6.47;;;5.03;;
71296;SDS011;59082;50.658;4.608;2022-12-07T16:43:22;6.67;;;5.17;;
71296;SDS011;59082;50.658;4.608;2022-12-07T16:45:48;8.03;;;5.73;;
71296;SDS011;59082;50.658;4.608;2022-12-07T16:48:14;5.88;;;4.70;;
71296;SDS011;59082;50.658;4.608;2022-12-07T16:50:40;6.25;;;4.93;;
71296;SDS011;59082;50.658;4.608;2022-12-07T16:53:06;6.32;;;5.53;;
71296;SDS011;59082;50.658;4.608;2022-12-07T16:55:36;7.07;;;4.67;;
71296;SDS011;59082;50.658;4.608;2022-12-07T16:58:10;6.63;;;4.30;;
71296;SDS011;59082;50.658;4.608;2022-12-07T17:00:39;6.88;;;4.45;;
71296;SDS011;59082;50.658;4.608;2022-12-07T17:03:06;5.88;;;4.43;;
71296;SDS011;59082;50.658;4.608;2022-12-07T17:05:32;6.22;;;4.68;;
71296;SDS011;59082;50.658;4.608;2022-12-07T17:07:58;5.00;;;3.70;;
71296;SDS011;59082;50.658;4.608;2022-12-07T17:10:25;6.43;;;4.13;;
71296;SDS011;59082;50.658;4.608;2022-12-07T17:12:51;9.40;;;5.35;;
71296;SDS011;59082;50.658;4.608;2022-12-07T17:15:18;14.23;;;7.60;;
71296;SDS011;59082;50.658;4.608;2022-12-07T17:17:46;23.48;;;11.43;;
71296;SDS011;59082;50.658;4.608;2022-12-07T17:20:17;10.55;;;6.68;;
71296;SDS011;59082;50.658;4.608;2022-12-07T17:22:43;146.68;;;45.25;;
71296;SDS011;59082;50.658;4.608;2022-12-07T17:25:09;25.42;;;11.95;;
71296;SDS011;59082;50.658;4.608;2022-12-07T17:27:35;172.20;;;56.63;;
71296;SDS011;59082;50.658;4.608;2022-12-07T17:30:01;69.32;;;25.60;;
71296;SDS011;59082;50.658;4.608;2022-12-07T17:32:27;120.18;;;38.92;;
71296;SDS011;59082;50.658;4.608;2022-12-07T17:34:53;57.37;;;21.23;;
71296;SDS011;59082;50.658;4.608;2022-12-07T17:37:18;45.67;;;18.23;;
71296;SDS011;59082;50.658;4.608;2022-12-07T17:39:44;89.90;;;30.40;;
71296;SDS011;59082;50.658;4.608;2022-12-07T17:42:09;65.07;;;24.55;;
71296;SDS011;59082;50.658;4.608;2022-12-07T17:44:53;8.45;;;6.53;;
71296;SDS011;59082;50.658;4.608;2022-12-07T17:47:19;7.40;;;6.63;;
71296;SDS011;59082;50.658;4.608;2022-12-07T17:49:46;7.18;;;5.57;;
71296;SDS011;59082;50.658;4.608;2022-12-07T17:52:12;8.25;;;7.15;;
71296;SDS011;59082;50.658;4.608;2022-12-07T17:54:56;10.13;;;6.33;;
71296;SDS011;59082;50.658;4.608;2022-12-07T17:57:22;8.25;;;7.18;;
71296;SDS011;59082;50.658;4.608;2022-12-07T17:59:49;9.03;;;7.43;;
71296;SDS011;59082;50.658;4.608;2022-12-07T18:02:17;10.77;;;7.28;;
71296;SDS011;59082;50.658;4.608;2022-12-07T18:04:42;9.18;;;7.15;;
71296;SDS011;59082;50.658;4.608;2022-12-07T18:07:09;10.17;;;6.43;;
71296;SDS011;59082;50.658;4.608;2022-12-07T18:09:35;8.73;;;5.97;;
71296;SDS011;59082;50.658;4.608;2022-12-07T18:12:01;9.27;;;6.13;;
71296;SDS011;59082;50.658;4.608;2022-12-07T18:14:27;10.53;;;6.47;;
71296;SDS011;59082;50.658;4.608;2022-12-07T18:16:53;14.25;;;9.70;;
71296;SDS011;59082;50.658;4.608;2022-12-07T18:19:21;15.77;;;9.98;;
71296;SDS011;59082;50.658;4.608;2022-12-07T18:21:46;19.20;;;10.17;;
71296;SDS011;59082;50.658;4.608;2022-12-07T18:24:13;20.75;;;11.95;;
71296;SDS011;59082;50.658;4.608;2022-12-07T18:26:40;21.20;;;11.98;;
71296;SDS011;59082;50.658;4.608;2022-12-07T18:29:06;13.27;;;8.70;;
71296;SDS011;59082;50.658;4.608;2022-12-07T18:31:35;15.02;;;7.90;;
71296;SDS011;59082;50.658;4.608;2022-12-07T18:34:02;14.75;;;10.27;;
71296;SDS011;59082;50.658;4.608;2022-12-07T18:36:32;15.15;;;8.48;;
71296;SDS011;59082;50.658;4.608;2022-12-07T18:38:58;16.60;;;9.40;;
71296;SDS011;59082;50.658;4.608;2022-12-07T18:41:23;13.15;;;9.20;;
71296;SDS011;59082;50.658;4.608;2022-12-07T18:43:49;17.53;;;10.03;;
71296;SDS011;59082;50.658;4.608;2022-12-07T18:46:16;16.17;;;10.60;;
71296;SDS011;59082;50.658;4.608;2022-12-07T18:48:43;15.20;;;10.57;;
71296;SDS011;59082;50.658;4.608;2022-12-07T18:51:10;11.40;;;9.40;;
71296;SDS011;59082;50.658;4.608;2022-12-07T18:53:40;17.48;;;10.82;;
71296;SDS011;59082;50.658;4.608;2022-12-07T18:56:09;18.58;;;11.52;;
71296;SDS011;59082;50.658;4.608;2022-12-07T18:58:37;23.13;;;14.17;;
71296;SDS011;59082;50.658;4.608;2022-12-07T19:01:24;18.70;;;12.13;;
71296;SDS011;59082;50.658;4.608;2022-12-07T19:03:50;19.45;;;11.80;;
71296;SDS011;59082;50.658;4.608;2022-12-07T19:06:16;32.77;;;22.13;;
71296;SDS011;59082;50.658;4.608;2022-12-07T19:08:41;24.80;;;15.70;;
71296;SDS011;59082;50.658;4.608;2022-12-07T19:11:07;25.87;;;15.33;;
71296;SDS011;59082;50.658;4.608;2022-12-07T19:13:52;29.42;;;15.48;;
71296;SDS011;59082;50.658;4.608;2022-12-07T19:16:19;19.30;;;13.13;;
71296;SDS011;59082;50.658;4.608;2022-12-07T19:18:44;17.75;;;11.50;;
71296;SDS011;59082;50.658;4.608;2022-12-07T19:21:10;28.67;;;15.40;;
71296;SDS011;59082;50.658;4.608;2022-12-07T19:23:35;19.75;;;11.13;;
71296;SDS011;59082;50.658;4.608;2022-12-07T19:26:01;19.70;;;12.43;;
71296;SDS011;59082;50.658;4.608;2022-12-07T19:28:26;16.03;;;10.40;;
71296;SDS011;59082;50.658;4.608;2022-12-07T19:30:52;23.58;;;13.80;;
71296;SDS011;59082;50.658;4.608;2022-12-07T19:33:17;16.67;;;10.20;;
71296;SDS011;59082;50.658;4.608;2022-12-07T19:35:43;14.83;;;9.63;;
71296;SDS011;59082;50.658;4.608;2022-12-07T19:38:08;15.00;;;10.30;;
71296;SDS011;59082;50.658;4.608;2022-12-07T19:40:34;19.50;;;13.93;;
71296;SDS011;59082;50.658;4.608;2022-12-07T19:42:59;18.53;;;11.13;;
71296;SDS011;59082;50.658;4.608;2022-12-07T19:45:25;22.53;;;14.10;;
71296;SDS011;59082;50.658;4.608;2022-12-07T19:47:52;20.98;;;13.98;;
71296;SDS011;59082;50.658;4.608;2022-12-07T19:50:18;15.73;;;10.20;;
71296;SDS011;59082;50.658;4.608;2022-12-07T19:52:43;18.10;;;9.60;;
71296;SDS011;59082;50.658;4.608;2022-12-07T19:55:15;15.73;;;9.57;;
71296;SDS011;59082;50.658;4.608;2022-12-07T19:57:40;15.40;;;9.73;;
71296;SDS011;59082;50.658;4.608;2022-12-07T20:00:06;18.57;;;9.20;;
71296;SDS011;59082;50.658;4.608;2022-12-07T20:02:32;18.92;;;10.40;;
71296;SDS011;59082;50.658;4.608;2022-12-07T20:04:58;15.13;;;9.50;;
71296;SDS011;59082;50.658;4.608;2022-12-07T20:07:23;16.17;;;9.53;;
71296;SDS011;59082;50.658;4.608;2022-12-07T20:09:49;15.87;;;8.60;;
71296;SDS011;59082;50.658;4.608;2022-12-07T20:12:15;13.07;;;8.30;;
71296;SDS011;59082;50.658;4.608;2022-12-07T20:14:59;15.07;;;8.50;;
71296;SDS011;59082;50.658;4.608;2022-12-07T20:17:24;13.17;;;7.70;;
71296;SDS011;59082;50.658;4.608;2022-12-07T20:19:50;14.43;;;8.40;;
71296;SDS011;59082;50.658;4.608;2022-12-07T20:22:16;15.80;;;7.60;;
71296;SDS011;59082;50.658;4.608;2022-12-07T20:24:41;12.77;;;7.73;;
71296;SDS011;59082;50.658;4.608;2022-12-07T20:27:07;13.60;;;8.53;;
71296;SDS011;59082;50.658;4.608;2022-12-07T20:29:32;17.23;;;9.90;;
71296;SDS011;59082;50.658;4.608;2022-12-07T20:31:58;15.82;;;10.00;;
71296;SDS011;59082;50.658;4.608;2022-12-07T20:34:24;12.00;;;9.37;;
71296;SDS011;59082;50.658;4.608;2022-12-07T20:36:50;16.13;;;9.70;;
71296;SDS011;59082;50.658;4.608;2022-12-07T20:39:16;13.97;;;8.27;;
71296;SDS011;59082;50.658;4.608;2022-12-07T20:41:42;16.35;;;8.88;;
71296;SDS011;59082;50.658;4.608;2022-12-07T20:44:26;12.43;;;8.35;;
71296;SDS011;59082;50.658;4.608;2022-12-07T20:46:51;13.40;;;9.17;;
71296;SDS011;59082;50.658;4.608;2022-12-07T20:49:17;15.40;;;9.20;;
71296;SDS011;59082;50.658;4.608;2022-12-07T20:51:43;10.63;;;7.73;;
71296;SDS011;59082;50.658;4.608;2022-12-07T20:54:09;11.00;;;7.93;;
71296;SDS011;59082;50.658;4.608;2022-12-07T20:56:34;14.73;;;7.97;;
71296;SDS011;59082;50.658;4.608;2022-12-07T20:59:02;11.70;;;8.15;;
71296;SDS011;59082;50.658;4.608;2022-12-07T21:01:29;15.27;;;7.97;;
71296;SDS011;59082;50.658;4.608;2022-12-07T21:03:56;13.50;;;8.02;;
71296;SDS011;59082;50.658;4.608;2022-12-07T21:06:23;12.60;;;6.90;;
71296;SDS011;59082;50.658;4.608;2022-12-07T21:08:50;11.93;;;7.47;;
71296;SDS011;59082;50.658;4.608;2022-12-07T21:11:17;11.32;;;7.05;;
71296;SDS011;59082;50.658;4.608;2022-12-07T21:13:44;11.52;;;7.43;;
71296;SDS011;59082;50.658;4.608;2022-12-07T21:16:11;13.93;;;7.13;;
71296;SDS011;59082;50.658;4.608;2022-12-07T21:18:38;10.30;;;7.10;;
71296;SDS011;59082;50.658;4.608;2022-12-07T21:21:05;13.88;;;8.38;;
71296;SDS011;59082;50.658;4.608;2022-12-07T21:23:31;16.38;;;9.98;;
